Aeroporto :
LOGIN :

Iscrizione | Disclaimer

   EN    FR    IT 

 










Sommario :    VFR   VFR Marginale   IFR   IFR Intensivo   IFR Molto Intensivo
Visibilità : 
Base nubi : 
>= 8 km
>= 3000ft
5 / 8 km
1000 / 3000 ft
1500m / 5 km
500 / 1000 ft
800 / 1500m
200 / 500 ft
< 800m
< 200 ft
Simboli :   Temporali  Nebbia  Neve Forte  Precipitazioni Forti  Vento > 20 kt
SIGMETs :   Varie  Temporali  Ghiacco  Turbolenza  Onda orograficha  Ceneri Vulcaniche






- Altitudine del aeroporto : 255 ft


ENGC - Gullfaks C oil platform

ULTIMO METAR :
  • 180520Z 20013KT 9999 SCT012 10/08 Q1002 W09/S4

METARs OBSOLETI :
  • 180450Z 20015KT 9999 BKN015 10/08 Q1002 W09/S4
  • 180420Z 20013KT 9999 SCT015TCU 10/08 Q1002 W09/S4
  • 180350Z 20013KT 9999 SCT015 BKN120 10/08 Q1002 W09/S4

TAF TAF ENGC
Valido dal 18 a 06 ore il 19 a 06 ore UTC


1806/1906 18018KT 9999 -SHRA FEW015TCU BKN030
BECMG 1809/1812 12010KT
BECMG 1815/1817 05015KT
BECMG 1821/1824 04025KT



MetMap, La meteo Aeronautica in un colpo d'occhio ! - Copyright ORBIFLY Dicembre 2007 - Disclaimer

ORBIFLY MET'MAP TEAM :

Programmazione e sviluppo : Alexandra Zaïnal
Concezione e sviluppo : Baudouin d'Aumeries
Co-Programmazione e sviluppo : Marc-Olivier Méhu
Supporto tecnico e logistico : Manuel Goepfert
Aiuto per la traduzione : Arnaldo La Scala

Contatto : metmap@orbifly.com




FONTI E CREDITI :

   NOAA